Time,TemperatureF,DewpointF,PressureIn,WindDirection,WindDirectionDegrees,WindSpeedMPH,WindSpeedGustMPH,Humidity,HourlyPrecipIn,Conditions,Clouds,dailyrainin,SoftwareType,DateUTC
2013-02-05 00:00:00,12.8,8.0,28.58,North,360,0.0,1.0,78,0.00,,,0.00,Rainwise IP-100,2013-02-05 05:00:00,
2013-02-05 00:05:00,12.5,8.0,28.58,North,360,0.0,1.0,81,0.00,,,0.00,Rainwise IP-100,2013-02-05 05:05:00,
2013-02-05 00:10:00,12.1,11.0,28.58,North,360,0.0,1.0,82,0.00,,,0.00,Rainwise IP-100,2013-02-05 05:10:00,
2013-02-05 00:15:00,11.7,11.0,28.58,North,360,0.0,1.0,85,0.00,,,0.00,Rainwise IP-100,2013-02-05 05:15:00,
2013-02-05 00:20:00,11.6,11.0,28.58,North,360,0.0,3.0,85,0.00,,,0.00,Rainwise IP-100,2013-02-05 05:20:00,
2013-02-05 00:21:00,11.6,11.0,28.58,North,360,0.0,3.0,86,0.00,,,0.00,Rainwise IP-100,2013-02-05 05:21:00,
2013-02-05 00:26:00,11.6,11.0,28.58,North,360,0.0,1.0,85,0.00,,,0.00,Rainwise IP-100,2013-02-05 05:26:00,
2013-02-05 00:31:00,11.5,11.0,28.58,North,360,0.0,4.0,86,0.00,,,0.00,Rainwise IP-100,2013-02-05 05:31:00,
2013-02-05 00:36:00,11.6,11.0,28.58,North,360,0.0,1.0,86,0.00,,,0.00,Rainwise IP-100,2013-02-05 05:36:00,
2013-02-05 00:41:00,11.6,11.0,28.58,North,360,2.0,3.0,87,0.00,,,0.00,Rainwise IP-100,2013-02-05 05:41:00,
2013-02-05 00:46:00,11.8,11.0,28.58,ENE,67,4.0,4.0,87,0.00,,,0.00,Rainwise IP-100,2013-02-05 05:46:00,
2013-02-05 00:51:00,12.2,11.0,28.58,ENE,67,0.0,4.0,83,0.00,,,0.00,Rainwise IP-100,2013-02-05 05:51:00,
2013-02-05 00:56:00,12.3,11.0,28.58,North,360,4.0,4.0,83,0.00,,,0.00,Rainwise IP-100,2013-02-05 05:56:00,
2013-02-05 01:01:00,12.7,8.0,28.58,NW,315,0.0,7.0,81,0.00,,,0.00,Rainwise IP-100,2013-02-05 06:01:00,
2013-02-05 01:06:00,12.8,8.0,28.58,NNE,22,1.0,1.0,81,0.00,,,0.00,Rainwise IP-100,2013-02-05 06:06:00,
2013-02-05 01:11:00,12.7,8.0,28.59,NNE,22,0.0,3.0,81,0.00,,,0.00,Rainwise IP-100,2013-02-05 06:11:00,
2013-02-05 01:16:00,12.6,8.0,28.59,NE,45,0.0,5.0,81,0.00,,,0.00,Rainwise IP-100,2013-02-05 06:16:00,
2013-02-05 01:21:00,12.5,8.0,28.59,NE,45,0.0,2.0,81,0.00,,,0.00,Rainwise IP-100,2013-02-05 06:21:00,
2013-02-05 01:26:00,12.5,8.0,28.59,North,360,1.0,3.0,81,0.00,,,0.00,Rainwise IP-100,2013-02-05 06:26:00,
2013-02-05 01:31:00,12.5,8.0,28.59,North,360,0.0,3.0,81,0.00,,,0.00,Rainwise IP-100,2013-02-05 06:31:00,
2013-02-05 01:36:00,12.3,8.0,28.59,North,360,0.0,1.0,81,0.00,,,0.00,Rainwise IP-100,2013-02-05 06:36:00,
2013-02-05 01:41:00,12.2,11.0,28.59,NNW,337,0.0,5.0,82,0.00,,,0.00,Rainwise IP-100,2013-02-05 06:41:00,
2013-02-05 01:46:00,12.2,11.0,28.60,NNW,337,0.0,1.0,82,0.00,,,0.00,Rainwise IP-100,2013-02-05 06:46:00,
2013-02-05 01:51:00,12.1,11.0,28.60,NNW,337,0.0,1.0,83,0.00,,,0.00,Rainwise IP-100,2013-02-05 06:51:00,
2013-02-05 01:56:00,11.8,11.0,28.60,NNW,337,0.0,2.0,84,0.00,,,0.00,Rainwise IP-100,2013-02-05 06:56:00,
2013-02-05 02:01:00,11.5,11.0,28.59,NNW,337,0.0,1.0,84,0.00,,,0.00,Rainwise IP-100,2013-02-05 07:01:00,
2013-02-05 02:06:00,11.2,8.0,28.59,NNW,337,0.0,0.0,88,0.00,,,0.00,Rainwise IP-100,2013-02-05 07:06:00,
2013-02-05 02:11:00,10.9,8.0,28.59,NNW,337,0.0,0.0,88,0.00,,,0.00,Rainwise IP-100,2013-02-05 07:11:00,
2013-02-05 02:16:00,10.5,8.0,28.59,NNW,337,0.0,0.0,90,0.00,,,0.00,Rainwise IP-100,2013-02-05 07:16:00,
2013-02-05 02:21:00,10.3,8.0,28.58,NNW,337,0.0,1.0,92,0.00,,,0.00,Rainwise IP-100,2013-02-05 07:21:00,
2013-02-05 02:26:00,10.2,11.0,28.59,NNW,337,0.0,0.0,94,0.00,,,0.00,Rainwise IP-100,2013-02-05 07:26:00,
2013-02-05 02:31:00,10.3,11.0,28.59,NNW,337,0.0,0.0,94,0.00,,,0.00,Rainwise IP-100,2013-02-05 07:31:00,
2013-02-05 02:36:00,10.6,8.0,28.60,NNW,337,0.0,2.0,92,0.00,,,0.00,Rainwise IP-100,2013-02-05 07:36:00,
2013-02-05 02:41:00,10.9,8.0,28.59,NNW,337,1.0,2.0,91,0.00,,,0.00,Rainwise IP-100,2013-02-05 07:41:00,
2013-02-05 02:44:00,11.1,8.0,28.59,NNW,337,0.0,2.0,91,0.00,,,0.00,Rainwise IP-100,2013-02-05 07:44:00,
2013-02-05 02:47:00,11.3,8.0,28.59,NNW,337,0.0,1.0,91,0.00,,,0.00,Rainwise IP-100,2013-02-05 07:47:00,
2013-02-05 02:52:00,11.3,8.0,28.59,NNW,337,0.0,0.0,92,0.00,,,0.00,Rainwise IP-100,2013-02-05 07:52:00,
2013-02-05 02:57:00,11.2,11.0,28.59,NNW,337,0.0,0.0,93,0.00,,,0.00,Rainwise IP-100,2013-02-05 07:57:00,
2013-02-05 03:02:00,11.2,11.0,28.59,NNW,337,0.0,0.0,93,0.00,,,0.00,Rainwise IP-100,2013-02-05 08:02:00,
2013-02-05 03:07:00,11.2,11.0,28.59,NNW,337,0.0,1.0,93,0.00,,,0.00,Rainwise IP-100,2013-02-05 08:07:00,
2013-02-05 03:12:00,11.5,14.0,28.58,NNW,337,0.0,0.0,94,0.00,,,0.00,Rainwise IP-100,2013-02-05 08:12:00,
2013-02-05 03:17:00,11.8,11.0,28.59,NNW,337,0.0,1.0,92,0.00,,,0.00,Rainwise IP-100,2013-02-05 08:17:00,
2013-02-05 03:22:00,12.1,11.0,28.59,NNW,337,0.0,1.0,92,0.00,,,0.00,Rainwise IP-100,2013-02-05 08:22:00,
2013-02-05 03:27:00,12.4,11.0,28.59,NNW,337,0.0,1.0,92,0.00,,,0.00,Rainwise IP-100,2013-02-05 08:27:00,
2013-02-05 03:32:00,12.6,11.0,28.59,NNW,337,1.0,2.0,90,0.00,,,0.00,Rainwise IP-100,2013-02-05 08:32:00,
2013-02-05 03:37:00,12.8,11.0,28.59,NNW,337,0.0,2.0,87,0.00,,,0.00,Rainwise IP-100,2013-02-05 08:37:00,
2013-02-05 03:42:00,13.1,11.0,28.59,NNW,337,0.0,1.0,87,0.00,,,0.00,Rainwise IP-100,2013-02-05 08:42:00,
2013-02-05 03:47:00,13.3,11.0,28.59,NNW,337,0.0,1.0,85,0.00,,,0.00,Rainwise IP-100,2013-02-05 08:47:00,
2013-02-05 03:52:00,13.4,11.0,28.59,NNW,337,0.0,2.0,85,0.00,,,0.00,Rainwise IP-100,2013-02-05 08:52:00,
2013-02-05 03:57:00,13.5,11.0,28.59,NNW,337,0.0,2.0,85,0.00,,,0.00,Rainwise IP-100,2013-02-05 08:57:00,
2013-02-05 04:02:00,13.6,11.0,28.59,NNW,337,0.0,2.0,84,0.00,,,0.00,Rainwise IP-100,2013-02-05 09:02:00,
2013-02-05 04:07:00,13.6,11.0,28.59,NNW,337,0.0,0.0,84,0.00,,,0.00,Rainwise IP-100,2013-02-05 09:07:00,
2013-02-05 04:12:00,13.6,11.0,28.59,NNW,337,1.0,1.0,84,0.00,,,0.00,Rainwise IP-100,2013-02-05 09:12:00,
2013-02-05 04:17:00,13.5,11.0,28.59,NNW,337,1.0,1.0,84,0.00,,,0.00,Rainwise IP-100,2013-02-05 09:17:00,
2013-02-05 04:22:00,13.4,11.0,28.59,NNW,337,0.0,1.0,85,0.00,,,0.00,Rainwise IP-100,2013-02-05 09:22:00,
2013-02-05 04:27:00,13.3,11.0,28.59,NNW,337,0.0,0.0,86,0.00,,,0.00,Rainwise IP-100,2013-02-05 09:27:00,
2013-02-05 04:32:00,13.3,11.0,28.59,NNW,337,0.0,1.0,85,0.00,,,0.00,Rainwise IP-100,2013-02-05 09:32:00,
2013-02-05 04:37:00,13.3,11.0,28.60,NNW,337,0.0,2.0,85,0.00,,,0.00,Rainwise IP-100,2013-02-05 09:37:00,
2013-02-05 04:42:00,13.4,11.0,28.60,NNW,337,0.0,1.0,87,0.00,,,0.00,Rainwise IP-100,2013-02-05 09:42:00,
2013-02-05 04:47:00,13.3,11.0,28.60,NNW,337,0.0,2.0,89,0.00,,,0.00,Rainwise IP-100,2013-02-05 09:47:00,
2013-02-05 04:52:00,13.2,11.0,28.60,NNW,337,0.0,2.0,89,0.00,,,0.00,Rainwise IP-100,2013-02-05 09:52:00,
2013-02-05 04:57:00,13.1,11.0,28.60,NNW,337,0.0,0.0,89,0.00,,,0.00,Rainwise IP-100,2013-02-05 09:57:00,
2013-02-05 05:02:00,13.1,11.0,28.60,NNW,337,0.0,0.0,89,0.00,,,0.00,Rainwise IP-100,2013-02-05 10:02:00,
2013-02-05 05:07:00,12.9,11.0,28.60,NNW,337,0.0,0.0,87,0.00,,,0.00,Rainwise IP-100,2013-02-05 10:07:00,
2013-02-05 05:12:00,13.1,11.0,28.60,NNW,337,0.0,0.0,83,0.00,,,0.00,Rainwise IP-100,2013-02-05 10:12:00,
2013-02-05 05:17:00,13.4,11.0,28.60,NNW,337,0.0,0.0,84,0.00,,,0.00,Rainwise IP-100,2013-02-05 10:17:00,
2013-02-05 05:22:00,13.6,11.0,28.60,NW,315,0.0,0.0,85,0.00,,,0.00,Rainwise IP-100,2013-02-05 10:22:00,
2013-02-05 05:27:00,13.9,11.0,28.60,NW,315,0.0,0.0,83,0.00,,,0.00,Rainwise IP-100,2013-02-05 10:27:00,
2013-02-05 05:32:00,13.9,8.0,28.61,NW,315,0.0,0.0,81,0.00,,,0.00,Rainwise IP-100,2013-02-05 10:32:00,
2013-02-05 05:37:00,13.9,8.0,28.61,NW,315,0.0,0.0,80,0.00,,,0.00,Rainwise IP-100,2013-02-05 10:37:00,
2013-02-05 05:42:00,13.9,8.0,28.61,NW,315,0.0,0.0,80,0.00,,,0.00,Rainwise IP-100,2013-02-05 10:42:00,
2013-02-05 05:47:00,13.9,11.0,28.61,NW,315,0.0,0.0,84,0.00,,,0.00,Rainwise IP-100,2013-02-05 10:47:00,
2013-02-05 05:52:00,13.8,11.0,28.61,NW,315,0.0,0.0,85,0.00,,,0.00,Rainwise IP-100,2013-02-05 10:52:00,
2013-02-05 05:57:00,13.7,11.0,28.61,NW,315,0.0,0.0,84,0.00,,,0.00,Rainwise IP-100,2013-02-05 10:57:00,
2013-02-05 06:02:00,13.6,11.0,28.61,NW,315,0.0,0.0,84,0.00,,,0.00,Rainwise IP-100,2013-02-05 11:02:00,
2013-02-05 06:07:00,13.5,11.0,28.61,NW,315,0.0,0.0,84,0.00,,,0.00,Rainwise IP-100,2013-02-05 11:07:00,
2013-02-05 06:12:00,13.5,11.0,28.61,NW,315,0.0,0.0,84,0.00,,,0.00,Rainwise IP-100,2013-02-05 11:12:00,
2013-02-05 06:17:00,13.5,11.0,28.61,NW,315,0.0,0.0,88,0.00,,,0.00,Rainwise IP-100,2013-02-05 11:17:00,
2013-02-05 06:22:00,13.5,11.0,28.61,NW,315,0.0,0.0,90,0.00,,,0.00,Rainwise IP-100,2013-02-05 11:22:00,
2013-02-05 06:27:00,13.4,11.0,28.61,NW,315,0.0,0.0,90,0.00,,,0.00,Rainwise IP-100,2013-02-05 11:27:00,
2013-02-05 06:32:00,13.2,11.0,28.61,NW,315,0.0,0.0,88,0.00,,,0.00,Rainwise IP-100,2013-02-05 11:32:00,
2013-02-05 06:37:00,12.9,11.0,28.61,NW,315,0.0,0.0,90,0.00,,,0.00,Rainwise IP-100,2013-02-05 11:37:00,
2013-02-05 06:42:00,12.8,11.0,28.61,NW,315,0.0,0.0,90,0.00,,,0.00,Rainwise IP-100,2013-02-05 11:42:00,
2013-02-05 06:47:00,12.9,11.0,28.61,NW,315,0.0,0.0,90,0.00,,,0.00,Rainwise IP-100,2013-02-05 11:47:00,
2013-02-05 06:52:00,13.2,11.0,28.62,ENE,67,1.0,3.0,91,0.00,,,0.00,Rainwise IP-100,2013-02-05 11:52:00,
2013-02-05 06:57:00,13.1,11.0,28.62,ENE,67,1.0,2.0,87,0.00,,,0.00,Rainwise IP-100,2013-02-05 11:57:00,
2013-02-05 07:02:00,13.1,11.0,28.62,ENE,67,2.0,3.0,90,0.00,,,0.00,Rainwise IP-100,2013-02-05 12:02:00,
2013-02-05 07:07:00,12.8,11.0,28.62,ENE,67,2.0,3.0,92,0.00,,,0.00,Rainwise IP-100,2013-02-05 12:07:00,
2013-02-05 07:12:00,12.7,11.0,28.63,ENE,67,1.0,3.0,93,0.00,,,0.00,Rainwise IP-100,2013-02-05 12:12:00,
2013-02-05 07:17:00,12.6,11.0,28.63,ENE,67,0.0,1.0,93,0.00,,,0.00,Rainwise IP-100,2013-02-05 12:17:00,
2013-02-05 07:22:00,12.6,11.0,28.63,ENE,67,0.0,0.0,92,0.00,,,0.00,Rainwise IP-100,2013-02-05 12:22:00,
2013-02-05 07:27:00,12.6,14.0,28.63,ENE,67,0.0,0.0,94,0.00,,,0.00,Rainwise IP-100,2013-02-05 12:27:00,
2013-02-05 07:32:00,12.8,11.0,28.63,ENE,67,0.0,0.0,91,0.00,,,0.00,Rainwise IP-100,2013-02-05 12:32:00,
2013-02-05 07:37:00,12.9,11.0,28.64,ENE,67,0.0,0.0,90,0.00,,,0.00,Rainwise IP-100,2013-02-05 12:37:00,
2013-02-05 07:42:00,13.1,11.0,28.65,SSW,202,0.0,5.0,92,0.00,,,0.00,Rainwise IP-100,2013-02-05 12:42:00,
2013-02-05 07:47:00,13.1,11.0,28.65,SSW,202,0.0,3.0,92,0.00,,,0.00,Rainwise IP-100,2013-02-05 12:47:00,
2013-02-05 07:52:00,13.2,11.0,28.65,SW,225,0.0,3.0,90,0.00,,,0.00,Rainwise IP-100,2013-02-05 12:52:00,
2013-02-05 07:57:00,13.4,11.0,28.65,SW,225,0.0,0.0,89,0.00,,,0.00,Rainwise IP-100,2013-02-05 12:57:00,
2013-02-05 08:02:00,13.6,11.0,28.65,SW,225,0.0,0.0,89,0.00,,,0.00,Rainwise IP-100,2013-02-05 13:02:00,
2013-02-05 08:07:00,13.8,11.0,28.65,SW,225,0.0,0.0,89,0.00,,,0.00,Rainwise IP-100,2013-02-05 13:07:00,
2013-02-05 08:12:00,14.1,11.0,28.66,SW,225,0.0,0.0,88,0.00,,,0.00,Rainwise IP-100,2013-02-05 13:12:00,
2013-02-05 08:17:00,14.3,11.0,28.66,South,180,0.0,1.0,88,0.00,,,0.00,Rainwise IP-100,2013-02-05 13:17:00,
2013-02-05 08:22:00,14.5,14.0,28.66,South,180,0.0,0.0,87,0.00,,,0.00,Rainwise IP-100,2013-02-05 13:22:00,
2013-02-05 08:27:00,14.8,14.0,28.66,South,180,1.0,2.0,86,0.00,,,0.00,Rainwise IP-100,2013-02-05 13:27:00,
2013-02-05 08:32:00,14.9,14.0,28.66,SE,135,1.0,2.0,84,0.00,,,0.00,Rainwise IP-100,2013-02-05 13:32:00,
2013-02-05 08:37:00,14.9,11.0,28.66,East,90,0.0,2.0,82,0.00,,,0.00,Rainwise IP-100,2013-02-05 13:37:00,
2013-02-05 08:42:00,15.1,11.0,28.66,ESE,112,0.0,1.0,83,0.00,,,0.00,Rainwise IP-100,2013-02-05 13:42:00,
2013-02-05 08:47:00,15.1,11.0,28.66,South,180,1.0,2.0,83,0.00,,,0.00,Rainwise IP-100,2013-02-05 13:47:00,
2013-02-05 08:52:00,15.1,11.0,28.67,South,180,0.0,3.0,83,0.00,,,0.00,Rainwise IP-100,2013-02-05 13:52:00,
2013-02-05 08:57:00,15.1,11.0,28.67,South,180,0.0,1.0,82,0.00,,,0.00,Rainwise IP-100,2013-02-05 13:57:00,
2013-02-05 09:02:00,14.9,11.0,28.67,South,180,0.0,2.0,81,0.00,,,0.00,Rainwise IP-100,2013-02-05 14:02:00,
2013-02-05 09:07:00,14.9,11.0,28.67,South,180,0.0,0.0,82,0.00,,,0.00,Rainwise IP-100,2013-02-05 14:07:00,
2013-02-05 09:12:00,14.9,11.0,28.67,South,180,0.0,1.0,82,0.00,,,0.00,Rainwise IP-100,2013-02-05 14:12:00,
2013-02-05 09:17:00,14.9,11.0,28.67,South,180,0.0,0.0,81,0.00,,,0.00,Rainwise IP-100,2013-02-05 14:17:00,
2013-02-05 09:22:00,15.1,11.0,28.66,South,180,0.0,2.0,82,0.00,,,0.00,Rainwise IP-100,2013-02-05 14:22:00,
2013-02-05 09:27:00,15.5,11.0,28.67,South,180,0.0,3.0,80,0.00,,,0.00,Rainwise IP-100,2013-02-05 14:27:00,
2013-02-05 09:32:00,15.9,11.0,28.67,South,180,0.0,2.0,77,0.00,,,0.00,Rainwise IP-100,2013-02-05 14:32:00,
2013-02-05 09:37:00,16.4,11.0,28.67,South,180,0.0,0.0,77,0.00,,,0.00,Rainwise IP-100,2013-02-05 14:37:00,
2013-02-05 09:42:00,16.9,11.0,28.66,South,180,0.0,2.0,74,0.00,,,0.00,Rainwise IP-100,2013-02-05 14:42:00,
2013-02-05 09:47:00,17.4,11.0,28.66,SSW,202,2.0,3.0,71,0.00,,,0.00,Rainwise IP-100,2013-02-05 14:47:00,
2013-02-05 09:52:00,18.4,11.0,28.67,SSW,202,2.0,2.0,70,0.00,,,0.00,Rainwise IP-100,2013-02-05 14:52:00,
2013-02-05 09:57:00,19.4,11.0,28.67,SSW,202,0.0,5.0,67,0.00,,,0.00,Rainwise IP-100,2013-02-05 14:57:00,
2013-02-05 10:02:00,20.9,11.0,28.68,SSW,202,4.0,4.0,64,0.00,,,0.00,Rainwise IP-100,2013-02-05 15:02:00,
2013-02-05 10:07:00,21.7,11.0,28.67,ESE,112,2.0,5.0,58,0.00,,,0.00,Rainwise IP-100,2013-02-05 15:07:00,
2013-02-05 10:12:00,22.5,11.0,28.67,South,180,0.0,6.0,58,0.00,,,0.00,Rainwise IP-100,2013-02-05 15:12:00,
2013-02-05 10:17:00,22.9,11.0,28.67,WSW,247,0.0,6.0,56,0.00,,,0.00,Rainwise IP-100,2013-02-05 15:17:00,
2013-02-05 10:22:00,22.9,11.0,28.67,SE,135,0.0,6.0,55,0.00,,,0.00,Rainwise IP-100,2013-02-05 15:22:00,
2013-02-05 10:27:00,22.9,11.0,28.67,SSE,157,0.0,5.0,58,0.00,,,0.00,Rainwise IP-100,2013-02-05 15:27:00,
2013-02-05 10:32:00,22.9,11.0,28.68,SE,135,2.0,7.0,58,0.00,,,0.00,Rainwise IP-100,2013-02-05 15:32:00,
2013-02-05 10:37:00,22.4,11.0,28.68,SE,135,2.0,7.0,56,0.00,,,0.00,Rainwise IP-100,2013-02-05 15:37:00,
2013-02-05 10:42:00,22.5,11.0,28.68,ESE,112,0.0,7.0,58,0.00,,,0.00,Rainwise IP-100,2013-02-05 15:42:00,
2013-02-05 10:47:00,22.6,8.0,28.68,SSE,157,5.0,5.0,53,0.00,,,0.00,Rainwise IP-100,2013-02-05 15:47:00,
2013-02-05 10:52:00,23.1,11.0,28.68,SW,225,5.0,6.0,55,0.00,,,0.00,Rainwise IP-100,2013-02-05 15:52:00,
2013-02-05 10:57:00,23.4,8.0,28.67,SSW,202,0.0,6.0,53,0.00,,,0.00,Rainwise IP-100,2013-02-05 15:57:00,
2013-02-05 11:02:00,23.9,11.0,28.67,SE,135,2.0,6.0,52,0.00,,,0.00,Rainwise IP-100,2013-02-05 16:02:00,
2013-02-05 11:07:00,24.2,11.0,28.67,SSE,157,2.0,5.0,53,0.00,,,0.00,Rainwise IP-100,2013-02-05 16:07:00,
2013-02-05 11:12:00,24.5,11.0,28.67,SW,225,1.0,6.0,51,0.00,,,0.00,Rainwise IP-100,2013-02-05 16:12:00,
2013-02-05 11:17:00,25.4,11.0,28.67,SE,135,2.0,4.0,50,0.00,,,0.00,Rainwise IP-100,2013-02-05 16:17:00,
2013-02-05 11:22:00,25.3,11.0,28.67,South,180,0.0,6.0,50,0.00,,,0.00,Rainwise IP-100,2013-02-05 16:22:00,
2013-02-05 11:27:00,25.9,11.0,28.67,SSW,202,0.0,6.0,50,0.00,,,0.00,Rainwise IP-100,2013-02-05 16:27:00,
2013-02-05 11:32:00,25.9,11.0,28.67,West,270,7.0,8.0,49,0.00,,,0.00,Rainwise IP-100,2013-02-05 16:32:00,
2013-02-05 11:37:00,25.8,11.0,28.67,SE,135,0.0,7.0,48,0.00,,,0.00,Rainwise IP-100,2013-02-05 16:37:00,
2013-02-05 11:42:00,26.3,11.0,28.67,SW,225,3.0,3.0,48,0.00,,,0.00,Rainwise IP-100,2013-02-05 16:42:00,
2013-02-05 11:47:00,25.9,11.0,28.66,SW,225,0.0,4.0,48,0.00,,,0.00,Rainwise IP-100,2013-02-05 16:47:00,
2013-02-05 11:52:00,25.9,11.0,28.66,ESE,112,0.0,4.0,47,0.00,,,0.00,Rainwise IP-100,2013-02-05 16:52:00,
2013-02-05 11:57:00,25.8,11.0,28.66,SSE,157,0.0,2.0,49,0.00,,,0.00,Rainwise IP-100,2013-02-05 16:57:00,
2013-02-05 12:02:00,24.9,11.0,28.66,East,90,2.0,6.0,49,0.00,,,0.00,Rainwise IP-100,2013-02-05 17:02:00,
2013-02-05 12:07:00,25.4,11.0,28.65,SE,135,0.0,5.0,50,0.00,,,0.00,Rainwise IP-100,2013-02-05 17:07:00,
2013-02-05 12:12:00,25.4,11.0,28.65,SW,225,1.0,6.0,51,0.00,,,0.00,Rainwise IP-100,2013-02-05 17:12:00,
2013-02-05 12:17:00,25.6,11.0,28.65,SSW,202,0.0,5.0,51,0.00,,,0.00,Rainwise IP-100,2013-02-05 17:17:00,
2013-02-05 12:22:00,25.6,11.0,28.65,SW,225,3.0,5.0,50,0.00,,,0.00,Rainwise IP-100,2013-02-05 17:22:00,
2013-02-05 12:27:00,25.8,11.0,28.65,SE,135,0.0,5.0,51,0.00,,,0.00,Rainwise IP-100,2013-02-05 17:27:00,
2013-02-05 12:32:00,26.2,11.0,28.65,WSW,247,2.0,6.0,50,0.00,,,0.00,Rainwise IP-100,2013-02-05 17:32:00,
2013-02-05 12:37:00,26.2,11.0,28.65,WNW,292,1.0,6.0,50,0.00,,,0.00,Rainwise IP-100,2013-02-05 17:37:00,
2013-02-05 12:42:00,26.2,11.0,28.64,WSW,247,1.0,6.0,49,0.00,,,0.00,Rainwise IP-100,2013-02-05 17:42:00,
2013-02-05 12:47:00,25.9,11.0,28.64,WSW,247,5.0,6.0,52,0.00,,,0.00,Rainwise IP-100,2013-02-05 17:47:00,
2013-02-05 12:52:00,26.1,11.0,28.64,SW,225,2.0,6.0,52,0.00,,,0.00,Rainwise IP-100,2013-02-05 17:52:00,
2013-02-05 12:57:00,26.1,11.0,28.64,WSW,247,3.0,5.0,52,0.00,,,0.00,Rainwise IP-100,2013-02-05 17:57:00,
2013-02-05 13:02:00,26.2,14.0,28.64,West,270,1.0,6.0,54,0.00,,,0.00,Rainwise IP-100,2013-02-05 18:02:00,
2013-02-05 13:07:00,26.1,11.0,28.63,WSW,247,0.0,6.0,52,0.00,,,0.00,Rainwise IP-100,2013-02-05 18:07:00,
2013-02-05 13:12:00,26.3,11.0,28.63,WNW,292,0.0,4.0,53,0.00,,,0.00,Rainwise IP-100,2013-02-05 18:12:00,
2013-02-05 13:17:00,26.5,14.0,28.62,West,270,4.0,6.0,54,0.00,,,0.00,Rainwise IP-100,2013-02-05 18:17:00,
2013-02-05 13:22:00,26.2,11.0,28.62,WSW,247,0.0,6.0,52,0.00,,,0.00,Rainwise IP-100,2013-02-05 18:22:00,
2013-02-05 13:27:00,26.4,14.0,28.63,SE,135,3.0,6.0,54,0.00,,,0.00,Rainwise IP-100,2013-02-05 18:27:00,
2013-02-05 13:32:00,26.9,14.0,28.63,West,270,2.0,6.0,50,0.00,,,0.00,Rainwise IP-100,2013-02-05 18:32:00,
2013-02-05 13:37:00,26.8,14.0,28.63,WSW,247,0.0,7.0,52,0.00,,,0.00,Rainwise IP-100,2013-02-05 18:37:00,
2013-02-05 13:42:00,27.1,14.0,28.62,West,270,4.0,6.0,51,0.00,,,0.00,Rainwise IP-100,2013-02-05 18:42:00,
2013-02-05 13:47:00,27.1,14.0,28.62,West,270,4.0,6.0,50,0.00,,,0.00,Rainwise IP-100,2013-02-05 18:47:00,
2013-02-05 13:52:00,27.1,11.0,28.62,SE,135,4.0,5.0,49,0.00,,,0.00,Rainwise IP-100,2013-02-05 18:52:00,
2013-02-05 13:57:00,26.3,11.0,28.63,SE,135,2.0,6.0,50,0.00,,,0.00,Rainwise IP-100,2013-02-05 18:57:00,
2013-02-05 14:02:00,26.6,14.0,28.62,SW,225,1.0,8.0,51,0.00,,,0.00,Rainwise IP-100,2013-02-05 19:02:00,
2013-02-05 14:08:00,26.8,14.0,28.62,SSE,157,0.0,6.0,52,0.00,,,0.00,Rainwise IP-100,2013-02-05 19:08:00,
2013-02-05 14:13:00,26.9,14.0,28.62,SW,225,0.0,7.0,50,0.00,,,0.00,Rainwise IP-100,2013-02-05 19:13:00,
2013-02-05 14:18:00,26.9,14.0,28.62,West,270,1.0,6.0,51,0.00,,,0.00,Rainwise IP-100,2013-02-05 19:18:00,
2013-02-05 14:23:00,26.9,14.0,28.61,SSW,202,1.0,5.0,51,0.00,,,0.00,Rainwise IP-100,2013-02-05 19:23:00,
2013-02-05 14:28:00,26.6,14.0,28.61,West,270,3.0,4.0,50,0.00,,,0.00,Rainwise IP-100,2013-02-05 19:28:00,
2013-02-05 14:33:00,26.6,14.0,28.61,SW,225,1.0,7.0,52,0.00,,,0.00,Rainwise IP-100,2013-02-05 19:33:00,
2013-02-05 14:38:00,26.7,14.0,28.61,WSW,247,3.0,7.0,52,0.00,,,0.00,Rainwise IP-100,2013-02-05 19:38:00,
2013-02-05 14:43:00,26.8,14.0,28.61,West,270,4.0,5.0,50,0.00,,,0.00,Rainwise IP-100,2013-02-05 19:43:00,
2013-02-05 14:48:00,27.4,14.0,28.60,WNW,292,0.0,6.0,51,0.00,,,0.00,Rainwise IP-100,2013-02-05 19:48:00,
2013-02-05 14:53:00,27.9,14.0,28.61,SW,225,5.0,6.0,50,0.00,,,0.00,Rainwise IP-100,2013-02-05 19:53:00,
2013-02-05 14:58:00,27.9,11.0,28.61,WSW,247,4.0,7.0,48,0.00,,,0.00,Rainwise IP-100,2013-02-05 19:58:00,
2013-02-05 15:03:00,27.9,11.0,28.60,SSE,157,1.0,6.0,48,0.00,,,0.00,Rainwise IP-100,2013-02-05 20:03:00,
2013-02-05 15:08:00,27.8,14.0,28.61,West,270,6.0,6.0,50,0.00,,,0.00,Rainwise IP-100,2013-02-05 20:08:00,
2013-02-05 15:13:00,27.8,14.0,28.60,NW,315,4.0,7.0,50,0.00,,,0.00,Rainwise IP-100,2013-02-05 20:13:00,
2013-02-05 15:18:00,27.5,14.0,28.60,WSW,247,3.0,6.0,51,0.00,,,0.00,Rainwise IP-100,2013-02-05 20:18:00,
2013-02-05 15:23:00,27.1,14.0,28.60,SW,225,3.0,8.0,50,0.00,,,0.00,Rainwise IP-100,2013-02-05 20:23:00,
2013-02-05 15:28:00,27.1,14.0,28.60,WSW,247,3.0,5.0,51,0.00,,,0.00,Rainwise IP-100,2013-02-05 20:28:00,
2013-02-05 15:33:00,27.3,14.0,28.60,West,270,6.0,8.0,51,0.00,,,0.00,Rainwise IP-100,2013-02-05 20:33:00,
2013-02-05 15:38:00,27.2,14.0,28.60,SW,225,6.0,8.0,50,0.00,,,0.00,Rainwise IP-100,2013-02-05 20:38:00,
2013-02-05 15:43:00,26.8,14.0,28.60,SE,135,3.0,8.0,50,0.00,,,0.00,Rainwise IP-100,2013-02-05 20:43:00,
2013-02-05 15:48:00,26.6,14.0,28.60,WNW,292,0.0,6.0,51,0.00,,,0.00,Rainwise IP-100,2013-02-05 20:48:00,
2013-02-05 15:53:00,26.5,14.0,28.60,SW,225,0.0,5.0,52,0.00,,,0.00,Rainwise IP-100,2013-02-05 20:53:00,
2013-02-05 15:58:00,26.4,11.0,28.61,WSW,247,6.0,6.0,52,0.00,,,0.00,Rainwise IP-100,2013-02-05 20:58:00,
2013-02-05 16:03:00,26.1,11.0,28.61,WNW,292,3.0,6.0,52,0.00,,,0.00,Rainwise IP-100,2013-02-05 21:03:00,
2013-02-05 16:08:00,25.9,11.0,28.61,WSW,247,3.0,6.0,53,0.00,,,0.00,Rainwise IP-100,2013-02-05 21:08:00,
2013-02-05 16:13:00,25.9,11.0,28.61,West,270,0.0,6.0,53,0.00,,,0.00,Rainwise IP-100,2013-02-05 21:13:00,
2013-02-05 16:18:00,25.7,14.0,28.61,WSW,247,1.0,6.0,54,0.00,,,0.00,Rainwise IP-100,2013-02-05 21:18:00,
2013-02-05 16:23:00,25.6,14.0,28.61,West,270,4.0,6.0,54,0.00,,,0.00,Rainwise IP-100,2013-02-05 21:23:00,
2013-02-05 16:28:00,25.5,14.0,28.61,West,270,2.0,6.0,55,0.00,,,0.00,Rainwise IP-100,2013-02-05 21:28:00,
2013-02-05 16:33:00,25.4,14.0,28.61,WNW,292,2.0,3.0,55,0.00,,,0.00,Rainwise IP-100,2013-02-05 21:33:00,
2013-02-05 16:38:00,25.3,14.0,28.61,West,270,1.0,4.0,55,0.00,,,0.00,Rainwise IP-100,2013-02-05 21:38:00,
2013-02-05 16:43:00,25.2,14.0,28.61,WNW,292,0.0,5.0,55,0.00,,,0.00,Rainwise IP-100,2013-02-05 21:43:00,
2013-02-05 16:48:00,25.1,14.0,28.61,WNW,292,0.0,2.0,55,0.00,,,0.00,Rainwise IP-100,2013-02-05 21:48:00,
2013-02-05 16:53:00,24.9,14.0,28.61,WNW,292,1.0,2.0,57,0.00,,,0.00,Rainwise IP-100,2013-02-05 21:53:00,
2013-02-05 16:58:00,24.9,14.0,28.60,WNW,292,0.0,3.0,57,0.00,,,0.00,Rainwise IP-100,2013-02-05 21:58:00,
2013-02-05 17:03:00,24.7,14.0,28.60,WNW,292,1.0,2.0,57,0.00,,,0.00,Rainwise IP-100,2013-02-05 22:03:00,
2013-02-05 17:08:00,24.6,14.0,28.60,WNW,292,0.0,2.0,57,0.00,,,0.00,Rainwise IP-100,2013-02-05 22:08:00,
2013-02-05 17:13:00,24.5,14.0,28.60,WNW,292,0.0,1.0,58,0.00,,,0.00,Rainwise IP-100,2013-02-05 22:13:00,
2013-02-05 17:18:00,24.2,14.0,28.60,WNW,292,0.0,2.0,59,0.00,,,0.00,Rainwise IP-100,2013-02-05 22:18:00,
2013-02-05 17:23:00,23.9,14.0,28.60,WNW,292,0.0,0.0,61,0.00,,,0.00,Rainwise IP-100,2013-02-05 22:23:00,
2013-02-05 17:28:00,23.6,14.0,28.60,WNW,292,0.0,0.0,63,0.00,,,0.00,Rainwise IP-100,2013-02-05 22:28:00,
2013-02-05 17:33:00,23.3,14.0,28.59,WNW,292,0.0,0.0,63,0.00,,,0.00,Rainwise IP-100,2013-02-05 22:33:00,
2013-02-05 17:38:00,22.9,14.0,28.59,WNW,292,0.0,1.0,64,0.00,,,0.00,Rainwise IP-100,2013-02-05 22:38:00,
2013-02-05 17:43:00,22.6,14.0,28.59,WNW,292,0.0,0.0,67,0.00,,,0.00,Rainwise IP-100,2013-02-05 22:43:00,
2013-02-05 17:48:00,22.4,14.0,28.59,WNW,292,0.0,1.0,68,0.00,,,0.00,Rainwise IP-100,2013-02-05 22:48:00,
2013-02-05 17:53:00,22.5,14.0,28.59,WNW,292,0.0,0.0,67,0.00,,,0.00,Rainwise IP-100,2013-02-05 22:53:00,
2013-02-05 17:58:00,22.7,14.0,28.60,WNW,292,0.0,0.0,67,0.00,,,0.00,Rainwise IP-100,2013-02-05 22:58:00,
2013-02-05 18:03:00,22.7,14.0,28.59,WNW,292,0.0,0.0,68,0.00,,,0.00,Rainwise IP-100,2013-02-05 23:03:00,
2013-02-05 18:08:00,22.8,14.0,28.59,WNW,292,0.0,1.0,68,0.00,,,0.00,Rainwise IP-100,2013-02-05 23:08:00,
2013-02-05 18:13:00,22.8,14.0,28.59,WNW,292,0.0,1.0,67,0.00,,,0.00,Rainwise IP-100,2013-02-05 23:13:00,
2013-02-05 18:18:00,22.9,14.0,28.59,WNW,292,0.0,2.0,66,0.00,,,0.00,Rainwise IP-100,2013-02-05 23:18:00,
2013-02-05 18:23:00,22.9,14.0,28.59,WNW,292,0.0,0.0,68,0.00,,,0.00,Rainwise IP-100,2013-02-05 23:23:00,
2013-02-05 18:28:00,22.9,14.0,28.59,WNW,292,0.0,0.0,69,0.00,,,0.00,Rainwise IP-100,2013-02-05 23:28:00,
2013-02-05 18:33:00,22.6,14.0,28.59,WNW,292,0.0,0.0,69,0.00,,,0.00,Rainwise IP-100,2013-02-05 23:33:00,
2013-02-05 18:38:00,22.4,16.0,28.59,WNW,292,0.0,0.0,71,0.00,,,0.00,Rainwise IP-100,2013-02-05 23:38:00,
2013-02-05 18:43:00,22.2,14.0,28.59,WNW,292,0.0,0.0,70,0.00,,,0.00,Rainwise IP-100,2013-02-05 23:43:00,
2013-02-05 18:48:00,22.2,16.0,28.59,WNW,292,0.0,0.0,72,0.00,,,0.00,Rainwise IP-100,2013-02-05 23:48:00,
2013-02-05 18:53:00,22.2,16.0,28.59,WNW,292,0.0,0.0,72,0.00,,,0.00,Rainwise IP-100,2013-02-05 23:53:00,
2013-02-05 18:58:00,22.1,16.0,28.59,WNW,292,0.0,0.0,75,0.00,,,0.00,Rainwise IP-100,2013-02-05 23:58:00,
2013-02-05 19:03:00,21.9,16.0,28.59,WNW,292,0.0,0.0,74,0.00,,,0.00,Rainwise IP-100,2013-02-06 00:03:00,
2013-02-05 19:08:00,21.9,16.0,28.60,WNW,292,0.0,0.0,74,0.00,,,0.00,Rainwise IP-100,2013-02-06 00:08:00,
2013-02-05 19:13:00,21.8,16.0,28.60,WNW,292,0.0,0.0,75,0.00,,,0.00,Rainwise IP-100,2013-02-06 00:13:00,
2013-02-05 19:18:00,21.6,16.0,28.60,WNW,292,0.0,0.0,75,0.00,,,0.00,Rainwise IP-100,2013-02-06 00:18:00,
2013-02-05 19:23:00,21.5,16.0,28.60,WNW,292,0.0,0.0,76,0.00,,,0.00,Rainwise IP-100,2013-02-06 00:23:00,
2013-02-05 19:28:00,21.6,16.0,28.60,WNW,292,0.0,0.0,76,0.00,,,0.00,Rainwise IP-100,2013-02-06 00:28:00,
2013-02-05 19:33:00,21.6,16.0,28.60,WNW,292,0.0,0.0,77,0.00,,,0.00,Rainwise IP-100,2013-02-06 00:33:00,
2013-02-05 19:38:00,21.6,16.0,28.60,WNW,292,0.0,1.0,75,0.00,,,0.00,Rainwise IP-100,2013-02-06 00:38:00,
2013-02-05 19:43:00,21.9,16.0,28.60,WNW,292,1.0,1.0,73,0.00,,,0.00,Rainwise IP-100,2013-02-06 00:43:00,
2013-02-05 19:48:00,22.4,16.0,28.60,WNW,292,1.0,2.0,74,0.00,,,0.00,Rainwise IP-100,2013-02-06 00:48:00,
2013-02-05 19:53:00,22.6,16.0,28.60,WNW,292,0.0,1.0,72,0.00,,,0.00,Rainwise IP-100,2013-02-06 00:53:00,
2013-02-05 19:58:00,22.6,16.0,28.60,WNW,292,0.0,0.0,71,0.00,,,0.00,Rainwise IP-100,2013-02-06 00:58:00,
2013-02-05 20:03:00,22.5,16.0,28.61,WNW,292,0.0,0.0,71,0.00,,,0.00,Rainwise IP-100,2013-02-06 01:03:00,
2013-02-05 20:08:00,22.5,16.0,28.61,WNW,292,0.0,0.0,72,0.00,,,0.00,Rainwise IP-100,2013-02-06 01:08:00,
2013-02-05 20:13:00,22.5,16.0,28.61,WNW,292,0.0,0.0,73,0.00,,,0.00,Rainwise IP-100,2013-02-06 01:13:00,
2013-02-05 20:18:00,22.4,16.0,28.61,WNW,292,0.0,0.0,75,0.00,,,0.00,Rainwise IP-100,2013-02-06 01:18:00,
2013-02-05 20:23:00,22.5,16.0,28.61,WNW,292,0.0,0.0,75,0.00,,,0.00,Rainwise IP-100,2013-02-06 01:23:00,
2013-02-05 20:28:00,22.5,16.0,28.61,WNW,292,0.0,0.0,75,0.00,,,0.00,Rainwise IP-100,2013-02-06 01:28:00,
2013-02-05 20:33:00,22.7,16.0,28.61,WNW,292,1.0,1.0,74,0.00,,,0.00,Rainwise IP-100,2013-02-06 01:33:00,
2013-02-05 20:38:00,22.9,16.0,28.61,WNW,292,0.0,1.0,73,0.00,,,0.00,Rainwise IP-100,2013-02-06 01:38:00,
2013-02-05 20:43:00,22.9,16.0,28.61,WNW,292,0.0,1.0,73,0.00,,,0.00,Rainwise IP-100,2013-02-06 01:43:00,
2013-02-05 20:48:00,23.1,16.0,28.61,WNW,292,0.0,0.0,73,0.00,,,0.00,Rainwise IP-100,2013-02-06 01:48:00,
2013-02-05 20:53:00,23.1,16.0,28.61,WNW,292,1.0,3.0,74,0.00,,,0.00,Rainwise IP-100,2013-02-06 01:53:00,
2013-02-05 20:58:00,23.2,16.0,28.61,WNW,292,2.0,4.0,72,0.00,,,0.00,Rainwise IP-100,2013-02-06 01:58:00,
2013-02-05 21:03:00,23.3,16.0,28.61,WNW,292,1.0,2.0,73,0.00,,,0.00,Rainwise IP-100,2013-02-06 02:03:00,
2013-02-05 21:08:00,23.3,16.0,28.61,West,270,2.0,4.0,72,0.00,,,0.00,Rainwise IP-100,2013-02-06 02:08:00,
2013-02-05 21:13:00,23.4,16.0,28.61,West,270,1.0,3.0,73,0.00,,,0.00,Rainwise IP-100,2013-02-06 02:13:00,
2013-02-05 21:18:00,23.4,16.0,28.61,West,270,2.0,5.0,73,0.00,,,0.00,Rainwise IP-100,2013-02-06 02:18:00,
2013-02-05 21:23:00,23.5,18.0,28.61,West,270,1.0,7.0,74,0.00,,,0.00,Rainwise IP-100,2013-02-06 02:23:00,
2013-02-05 21:28:00,23.6,18.0,28.61,West,270,6.0,6.0,76,0.00,,,0.00,Rainwise IP-100,2013-02-06 02:28:00,
2013-02-05 21:33:00,23.6,18.0,28.61,West,270,2.0,6.0,76,0.00,,,0.00,Rainwise IP-100,2013-02-06 02:33:00,
2013-02-05 21:38:00,23.7,18.0,28.61,WNW,292,0.0,6.0,78,0.00,,,0.00,Rainwise IP-100,2013-02-06 02:38:00,
2013-02-05 21:43:00,23.6,18.0,28.61,West,270,0.0,6.0,78,0.00,,,0.00,Rainwise IP-100,2013-02-06 02:43:00,
2013-02-05 21:48:00,23.6,18.0,28.60,West,270,3.0,5.0,79,0.00,,,0.00,Rainwise IP-100,2013-02-06 02:48:00,
2013-02-05 21:53:00,23.5,18.0,28.60,WSW,247,5.0,5.0,80,0.00,,,0.00,Rainwise IP-100,2013-02-06 02:53:00,
2013-02-05 21:58:00,23.5,21.0,28.60,West,270,2.0,5.0,81,0.00,,,0.00,Rainwise IP-100,2013-02-06 02:58:00,
2013-02-05 22:03:00,23.4,18.0,28.60,West,270,0.0,5.0,82,0.00,,,0.00,Rainwise IP-100,2013-02-06 03:03:00,
2013-02-05 22:08:00,23.3,18.0,28.60,West,270,0.0,4.0,84,0.00,,,0.00,Rainwise IP-100,2013-02-06 03:08:00,
2013-02-05 22:13:00,23.2,18.0,28.60,West,270,1.0,3.0,84,0.00,,,0.00,Rainwise IP-100,2013-02-06 03:13:00,
2013-02-05 22:18:00,23.1,18.0,28.60,West,270,0.0,2.0,84,0.00,,,0.00,Rainwise IP-100,2013-02-06 03:18:00,
2013-02-05 22:23:00,22.9,18.0,28.60,West,270,1.0,4.0,85,0.00,,,0.00,Rainwise IP-100,2013-02-06 03:23:00,
2013-02-05 22:28:00,22.9,18.0,28.60,West,270,1.0,3.0,85,0.00,,,0.00,Rainwise IP-100,2013-02-06 03:28:00,
2013-02-05 22:33:00,22.9,18.0,28.60,West,270,0.0,2.0,85,0.00,,,0.00,Rainwise IP-100,2013-02-06 03:33:00,
2013-02-05 22:38:00,22.9,18.0,28.59,WSW,247,3.0,4.0,87,0.00,,,0.00,Rainwise IP-100,2013-02-06 03:38:00,
2013-02-05 22:43:00,22.8,18.0,28.60,WNW,292,1.0,4.0,87,0.00,,,0.00,Rainwise IP-100,2013-02-06 03:43:00,
2013-02-05 22:48:00,22.8,21.0,28.60,West,270,2.0,4.0,88,0.00,,,0.00,Rainwise IP-100,2013-02-06 03:48:00,
2013-02-05 22:53:00,22.8,21.0,28.60,WNW,292,1.0,4.0,89,0.00,,,0.00,Rainwise IP-100,2013-02-06 03:53:00,
2013-02-05 22:58:00,22.9,21.0,28.60,WSW,247,1.0,4.0,89,0.00,,,0.00,Rainwise IP-100,2013-02-06 03:58:00,
2013-02-05 23:03:00,22.9,21.0,28.61,West,270,1.0,5.0,90,0.00,,,0.00,Rainwise IP-100,2013-02-06 04:03:00,
2013-02-05 23:08:00,22.9,21.0,28.61,West,270,2.0,6.0,91,0.00,,,0.00,Rainwise IP-100,2013-02-06 04:08:00,
2013-02-05 23:13:00,22.9,21.0,28.61,SW,225,4.0,5.0,91,0.00,,,0.00,Rainwise IP-100,2013-02-06 04:13:00,
2013-02-05 23:18:00,22.9,21.0,28.61,WSW,247,2.0,5.0,92,0.00,,,0.00,Rainwise IP-100,2013-02-06 04:18:00,
2013-02-05 23:23:00,22.9,21.0,28.61,West,270,1.0,5.0,93,0.00,,,0.00,Rainwise IP-100,2013-02-06 04:23:00,
2013-02-05 23:28:00,22.9,21.0,28.61,WNW,292,3.0,6.0,94,0.00,,,0.00,Rainwise IP-100,2013-02-06 04:28:00,
2013-02-05 23:33:00,22.9,21.0,28.61,West,270,1.0,6.0,95,0.00,,,0.00,Rainwise IP-100,2013-02-06 04:33:00,
2013-02-05 23:38:00,22.9,21.0,28.60,West,270,2.0,4.0,95,0.00,,,0.00,Rainwise IP-100,2013-02-06 04:38:00,
2013-02-05 23:43:00,22.9,23.0,28.60,West,270,3.0,7.0,96,0.00,,,0.00,Rainwise IP-100,2013-02-06 04:43:00,
2013-02-05 23:48:00,22.9,23.0,28.60,WNW,292,4.0,6.0,97,0.00,,,0.00,Rainwise IP-100,2013-02-06 04:48:00,
2013-02-05 23:53:00,22.9,23.0,28.60,West,270,2.0,4.0,97,0.00,,,0.00,Rainwise IP-100,2013-02-06 04:53:00,
2013-02-05 23:58:00,22.9,23.0,28.61,West,270,3.0,6.0,98,0.00,,,0.00,Rainwise IP-100,2013-02-06 04:58:00,